createdAt,value
2016-03-30T00:00:56.326Z,0
2016-03-30T00:02:14.720Z,0
2016-03-30T00:03:00.284Z,0
2016-03-30T00:03:58.631Z,0
2016-03-30T00:04:31.306Z,0
2016-03-30T00:05:31.292Z,0
2016-03-30T00:10:38.744Z,0
2016-03-30T00:10:51.619Z,0
2016-03-30T00:12:29.125Z,0
2016-03-30T00:12:58.093Z,0
2016-03-30T00:14:01.955Z,0
2016-03-30T00:15:07.113Z,0
2016-03-30T00:15:58.258Z,0
2016-03-30T00:19:29.128Z,0
2016-03-30T00:20:06.050Z,0
2016-03-30T00:20:45.833Z,0
2016-03-30T00:22:11.898Z,0
2016-03-30T00:22:46.324Z,0
2016-03-30T00:23:49.669Z,0
2016-03-30T00:24:46.969Z,0
2016-03-30T00:25:46.487Z,0
2016-03-30T00:27:05.537Z,0
2016-03-30T00:28:05.555Z,0
2016-03-30T00:30:05.888Z,0
2016-03-30T00:30:45.970Z,0
2016-03-30T00:31:45.909Z,0
2016-03-30T00:32:58.662Z,0
2016-03-30T00:33:46.211Z,0
2016-03-30T00:34:59.230Z,0
2016-03-30T00:35:46.123Z,0
2016-03-30T00:36:45.969Z,0
2016-03-30T00:37:59.004Z,0
2016-03-30T00:38:52.131Z,0
2016-03-30T00:39:50.150Z,0
2016-03-30T00:40:46.934Z,0
2016-03-30T00:42:08.280Z,0
2016-03-30T00:42:48.845Z,0
2016-03-30T00:43:46.925Z,0
2016-03-30T00:44:59.711Z,0
2016-03-30T00:45:48.728Z,0
2016-03-30T00:47:14.638Z,0
2016-03-30T00:47:54.921Z,0
2016-03-30T00:59:42.798Z,0
2016-03-30T01:01:08.878Z,0
2016-03-30T01:01:56.632Z,0
2016-03-30T01:02:54.556Z,0
2016-03-30T01:03:53.965Z,0
2016-03-30T01:04:56.561Z,0
2016-03-30T01:05:54.642Z,0
2016-03-30T01:07:14.032Z,0
2016-03-30T01:08:14.493Z,0
2016-03-30T01:08:55.391Z,0
2016-03-30T01:09:54.821Z,0
2016-03-30T01:10:55.563Z,0
2016-03-30T01:11:54.026Z,0
2016-03-30T01:12:55.289Z,0
2016-03-30T01:13:54.647Z,0
2016-03-30T01:14:55.755Z,0
2016-03-30T01:15:54.050Z,0
2016-03-30T01:16:54.330Z,0
2016-03-30T01:17:53.331Z,0
2016-03-30T01:18:55.785Z,0
2016-03-30T01:24:50.202Z,0
2016-03-30T01:38:12.908Z,0
2016-03-30T01:39:03.974Z,0
2016-03-30T01:40:04.180Z,0
2016-03-30T01:41:04.011Z,0
2016-03-30T01:42:04.154Z,0
2016-03-30T01:43:04.032Z,0
2016-03-30T01:44:04.284Z,0
2016-03-30T01:45:05.710Z,0
2016-03-30T01:46:29.743Z,0
2016-03-30T01:47:04.105Z,0
2016-03-30T01:51:07.616Z,0
2016-03-30T01:51:55.650Z,0
2016-03-30T01:52:22.057Z,0
2016-03-30T01:53:21.606Z,0
2016-03-30T01:54:40.861Z,0
2016-03-30T01:55:21.642Z,0
2016-03-30T01:56:34.288Z,0
2016-03-30T01:57:31.601Z,0
2016-03-30T01:58:41.262Z,0
2016-03-30T01:59:37.874Z,0
2016-03-30T02:00:37.986Z,0
2016-03-30T02:01:44.380Z,0
2016-03-30T02:02:25.223Z,0
2016-03-30T02:03:25.211Z,0
2016-03-30T02:04:25.275Z,0
2016-03-30T02:05:25.216Z,0
2016-03-30T02:06:25.266Z,0
2016-03-30T02:07:25.127Z,0
2016-03-30T02:08:38.039Z,0
2016-03-30T02:09:25.320Z,0
2016-03-30T02:10:44.544Z,0
2016-03-30T02:11:25.325Z,0
2016-03-30T02:12:25.344Z,0
2016-03-30T02:13:25.362Z,0
2016-03-30T02:14:25.381Z,0
2016-03-30T02:15:25.430Z,0
2016-03-30T02:16:25.401Z,0
2016-03-30T02:17:38.141Z,0
2016-03-30T02:18:38.160Z,0
2016-03-30T02:19:25.441Z,0
2016-03-30T02:20:38.196Z,0
2016-03-30T02:21:25.477Z,0
2016-03-30T02:22:25.496Z,0
2016-03-30T02:23:25.499Z,0
2016-03-30T02:24:25.564Z,0
2016-03-30T02:25:26.145Z,0
2016-03-30T02:26:25.570Z,0
2016-03-30T02:27:26.198Z,0
2016-03-30T02:28:25.637Z,0
2016-03-30T02:29:38.331Z,0
2016-03-30T02:30:31.893Z,0
2016-03-30T02:31:25.630Z,0
2016-03-30T02:32:26.289Z,0
2016-03-30T02:33:26.276Z,0
2016-03-30T02:34:25.684Z,0
2016-03-30T02:35:25.703Z,0
2016-03-30T02:36:32.206Z,0
2016-03-30T02:37:25.865Z,0
2016-03-30T02:38:44.964Z,0
2016-03-30T02:39:32.058Z,0
2016-03-30T02:40:45.188Z,0
2016-03-30T02:41:32.078Z,0
2016-03-30T02:42:51.475Z,0
2016-03-30T02:43:26.022Z,0
2016-03-30T02:45:32.121Z,0
2016-03-30T02:46:26.077Z,0
2016-03-30T02:47:38.657Z,0
2016-03-30T02:48:25.910Z,0
2016-03-30T02:49:45.119Z,0
2016-03-30T02:50:25.931Z,0
2016-03-30T02:51:26.152Z,0
2016-03-30T02:52:25.968Z,0
2016-03-30T02:53:26.002Z,0
2016-03-30T02:54:32.270Z,0
2016-03-30T02:55:32.304Z,0
2016-03-30T02:56:26.041Z,0
2016-03-30T02:57:45.262Z,0
2016-03-30T02:58:26.141Z,0
2016-03-30T02:59:26.080Z,0
2016-03-30T03:00:26.145Z,0
2016-03-30T03:01:26.132Z,0
2016-03-30T03:02:26.135Z,0
2016-03-30T03:03:26.169Z,0
2016-03-30T03:04:26.203Z,0
2016-03-30T03:05:32.440Z,0
2016-03-30T03:06:38.912Z,0
2016-03-30T03:07:38.961Z,0
2016-03-30T03:08:45.479Z,0
2016-03-30T03:09:54.891Z,0
2016-03-30T03:10:55.050Z,0
2016-03-30T03:12:02.115Z,0
2016-03-30T03:12:29.412Z,0
2016-03-30T03:13:29.414Z,0
2016-03-30T03:14:29.589Z,0
2016-03-30T03:15:42.186Z,0
2016-03-30T03:16:29.470Z,0
2016-03-30T03:17:48.723Z,0
2016-03-30T03:18:42.304Z,0
2016-03-30T03:19:29.508Z,0
2016-03-30T03:20:48.778Z,0
2016-03-30T03:21:42.265Z,0
2016-03-30T03:22:55.255Z,0
2016-03-30T03:23:42.317Z,0
2016-03-30T03:24:29.617Z,0
2016-03-30T03:25:42.963Z,0
2016-03-30T03:26:42.372Z,0
2016-03-30T03:27:30.250Z,0
2016-03-30T03:29:32.880Z,0
2016-03-30T03:30:32.914Z,0
2016-03-30T03:31:32.916Z,0
2016-03-30T03:32:33.122Z,0
2016-03-30T03:33:45.703Z,0
2016-03-30T03:34:45.690Z,0
2016-03-30T03:35:58.492Z,0
2016-03-30T03:38:10.576Z,0
2016-03-30T03:39:20.282Z,0
2016-03-30T03:40:20.379Z,0
2016-03-30T03:41:33.272Z,0
2016-03-30T03:43:42.011Z,0
2016-03-30T03:45:07.861Z,0
2016-03-30T03:45:46.423Z,0
2016-03-30T03:46:20.660Z,0
2016-03-30T03:48:36.228Z,0
2016-03-30T03:48:48.744Z,0
2016-03-30T03:49:48.778Z,0
2016-03-30T03:50:55.064Z,0
2016-03-30T03:51:49.455Z,0
2016-03-30T03:52:49.145Z,0
2016-03-30T03:53:50.335Z,0
2016-03-30T03:55:10.450Z,0
2016-03-30T03:56:09.108Z,0
2016-03-30T03:56:50.452Z,0
2016-03-30T03:58:46.176Z,0
2016-03-30T04:00:33.463Z,0
2016-03-30T04:01:02.138Z,0
2016-03-30T04:03:28.190Z,0
2016-03-30T04:04:43.412Z,0
2016-03-30T04:05:31.570Z,0
2016-03-30T04:07:18.435Z,0
2016-03-30T04:08:12.235Z,0
2016-03-30T04:09:18.753Z,0
2016-03-30T04:10:12.287Z,0
2016-03-30T04:11:31.540Z,0
2016-03-30T04:12:12.480Z,0
2016-03-30T04:14:09.469Z,0
2016-03-30T04:14:22.313Z,0
2016-03-30T04:16:25.881Z,0
2016-03-30T04:16:57.946Z,0
2016-03-30T04:17:38.555Z,0
2016-03-30T04:19:04.702Z,0
2016-03-30T04:19:51.749Z,0
2016-03-30T04:20:38.564Z,0
2016-03-30T04:22:04.226Z,0
2016-03-30T04:23:13.853Z,0
2016-03-30T04:24:13.825Z,0
2016-03-30T04:24:48.450Z,0
2016-03-30T04:26:14.064Z,0
2016-03-30T04:27:30.161Z,0
2016-03-30T04:29:01.433Z,0
2016-03-30T04:31:36.203Z,0
2016-03-30T04:33:01.912Z,0
2016-03-30T04:34:52.180Z,4
2016-03-30T04:35:58.826Z,4
2016-03-30T04:37:04.907Z,4
2016-03-30T04:38:11.534Z,4
2016-03-30T04:40:14.242Z,4
2016-03-30T04:40:26.867Z,8
2016-03-30T04:41:26.823Z,8
2016-03-30T04:42:26.982Z,12
2016-03-30T04:43:39.609Z,12
2016-03-30T04:44:26.957Z,16
2016-03-30T04:45:46.194Z,20
2016-03-30T04:46:39.775Z,28
2016-03-30T04:47:53.046Z,32
2016-03-30T04:48:26.999Z,40
2016-03-30T04:50:25.458Z,48
2016-03-30T04:50:38.036Z,48
2016-03-30T04:52:29.431Z,52
2016-03-30T04:52:42.009Z,52
2016-03-30T04:54:38.999Z,52
2016-03-30T04:55:16.877Z,60
2016-03-30T04:56:26.473Z,64
2016-03-30T04:58:00.854Z,84
2016-03-30T04:58:13.447Z,84
2016-03-30T04:59:13.512Z,112
2016-03-30T05:00:13.516Z,136
2016-03-30T05:01:13.549Z,164
2016-03-30T05:02:13.490Z,184
2016-03-30T05:03:13.555Z,188
2016-03-30T05:04:13.541Z,168
2016-03-30T05:05:13.560Z,152
2016-03-30T05:06:16.734Z,156
2016-03-30T05:07:13.581Z,196
2016-03-30T05:09:42.571Z,336
2016-03-30T05:10:36.324Z,368
2016-03-30T05:11:48.904Z,404
2016-03-30T05:12:29.767Z,416
2016-03-30T05:13:55.413Z,452
2016-03-30T05:14:29.788Z,464
2016-03-30T05:16:32.434Z,516
2016-03-30T05:17:10.733Z,540
2016-03-30T05:17:45.030Z,564
2016-03-30T05:19:11.644Z,596
2016-03-30T05:19:45.644Z,612
2016-03-30T05:21:16.400Z,636
2016-03-30T05:21:54.199Z,644
2016-03-30T05:23:26.311Z,684
2016-03-30T05:24:07.470Z,720
2016-03-30T05:25:26.677Z,808
2016-03-30T05:26:07.508Z,860
2016-03-30T05:26:54.791Z,908
2016-03-30T05:28:07.528Z,976
2016-03-30T05:28:54.844Z,1040
2016-03-30T05:30:21.080Z,1184
2016-03-30T05:31:02.396Z,1232
2016-03-30T05:32:56.401Z,1236
2016-03-30T05:33:09.010Z,1224
2016-03-30T05:35:13.124Z,1244
2016-03-30T05:35:25.718Z,1284
2016-03-30T05:37:16.223Z,1416
2016-03-30T05:37:35.083Z,1436
2016-03-30T05:38:35.086Z,1472
2016-03-30T05:39:41.589Z,1568
2016-03-30T05:40:41.560Z,1664
2016-03-30T05:41:47.923Z,1788
2016-03-30T05:42:35.176Z,1892
2016-03-30T05:43:54.603Z,1976
2016-03-30T05:45:07.199Z,2012
2016-03-30T05:46:21.795Z,2108
2016-03-30T05:47:16.907Z,2280
2016-03-30T05:47:38.517Z,2328
2016-03-30T05:49:23.428Z,2512
2016-03-30T05:49:51.756Z,2524
2016-03-30T05:51:27.371Z,2584
2016-03-30T05:52:01.515Z,2784
2016-03-30T05:54:10.364Z,3000
2016-03-30T05:56:26.775Z,2884
2016-03-30T05:57:10.669Z,2860
2016-03-30T05:59:07.674Z,2960
2016-03-30T05:59:45.971Z,3016
2016-03-30T06:00:20.396Z,3136
2016-03-30T06:02:17.291Z,3356
2016-03-30T06:02:29.901Z,3328
2016-03-30T06:04:42.671Z,3692
2016-03-30T06:05:29.955Z,3804
2016-03-30T06:06:29.974Z,3744
2016-03-30T06:07:29.977Z,3744
2016-03-30T06:08:30.605Z,3416
2016-03-30T06:09:30.029Z,3260
2016-03-30T06:10:30.141Z,3236
2016-03-30T06:11:30.066Z,3396
2016-03-30T06:12:30.428Z,3380
2016-03-30T06:13:30.087Z,3504
2016-03-30T06:14:42.839Z,3652
2016-03-30T06:15:30.748Z,3720
2016-03-30T06:16:30.157Z,4000
2016-03-30T06:17:30.175Z,4212
2016-03-30T06:18:30.162Z,4008
2016-03-30T06:19:43.164Z,3948
2016-03-30T06:20:42.933Z,3648
2016-03-30T06:21:49.420Z,3788
2016-03-30T06:22:46.063Z,3928
2016-03-30T06:24:27.303Z,4176
2016-03-30T06:24:59.103Z,4932
2016-03-30T06:26:11.184Z,5536
2016-03-30T06:26:39.919Z,5576
2016-03-30T06:27:40.015Z,5680
2016-03-30T06:28:40.189Z,5572
2016-03-30T06:29:41.411Z,5796
2016-03-30T06:30:52.694Z,6476
2016-03-30T06:31:40.010Z,7160
2016-03-30T06:32:59.218Z,8248
2016-03-30T06:33:46.890Z,5696
2016-03-30T06:35:56.305Z,5136
2016-03-30T06:36:08.899Z,5108
2016-03-30T06:37:08.917Z,4788
2016-03-30T06:38:21.732Z,4248
2016-03-30T06:39:08.954Z,4252
2016-03-30T06:40:09.096Z,4816
2016-03-30T06:41:09.193Z,5124
2016-03-30T06:42:08.993Z,4812
2016-03-30T06:43:09.651Z,4832
2016-03-30T06:44:21.795Z,4660
2016-03-30T06:45:21.844Z,4388
2016-03-30T06:46:34.754Z,4240
2016-03-30T06:47:21.943Z,3596
2016-03-30T06:48:40.478Z,3528
2016-03-30T06:50:50.061Z,4072
2016-03-30T06:51:19.017Z,4364
2016-03-30T06:52:18.816Z,5076
2016-03-30T06:53:18.803Z,5940
2016-03-30T06:54:20.291Z,5352
2016-03-30T06:55:26.511Z,4428
2016-03-30T06:56:18.874Z,5084
2016-03-30T06:57:18.955Z,4548
2016-03-30T06:58:25.160Z,5976
2016-03-30T06:59:19.055Z,5568
2016-03-30T07:00:18.838Z,5344
2016-03-30T07:01:20.403Z,4644
2016-03-30T07:02:18.969Z,5556
2016-03-30T07:03:38.174Z,6716
2016-03-30T07:04:25.458Z,8604
2016-03-30T07:06:31.651Z,6064
2016-03-30T07:07:41.405Z,6912
2016-03-30T07:08:47.891Z,6864
2016-03-30T07:09:28.707Z,5308
2016-03-30T07:10:47.913Z,8456
2016-03-30T07:11:34.993Z,5128
2016-03-30T07:12:48.246Z,6748
2016-03-30T07:13:45.061Z,14020
2016-03-30T07:14:51.361Z,13532
2016-03-30T07:15:57.897Z,5268
2016-03-30T07:16:52.085Z,10848
2016-03-30T07:17:32.197Z,14068
2016-03-30T07:18:32.200Z,6972
2016-03-30T07:19:32.218Z,7628
2016-03-30T07:20:32.268Z,7012
2016-03-30T07:21:32.348Z,17120
2016-03-30T07:22:32.288Z,22496
2016-03-30T07:23:51.510Z,11452
2016-03-30T07:24:35.403Z,10688
2016-03-30T07:25:35.609Z,10932
2016-03-30T07:26:35.424Z,37248
2016-03-30T07:27:35.443Z,24000
2016-03-30T07:28:35.524Z,12512
2016-03-30T07:29:35.729Z,34208
2016-03-30T07:30:35.514Z,21280
2016-03-30T07:31:35.501Z,9640
2016-03-30T07:32:35.550Z,33536
2016-03-30T07:33:35.553Z,10104
2016-03-30T07:34:36.195Z,19232
2016-03-30T07:35:36.183Z,6892
2016-03-30T07:36:35.873Z,6976
2016-03-30T07:37:48.392Z,24320
2016-03-30T07:38:42.114Z,10976
2016-03-30T07:39:35.678Z,11096
2016-03-30T07:40:48.416Z,42592
2016-03-30T07:41:35.949Z,28256
2016-03-30T07:42:35.780Z,11012
2016-03-30T07:43:36.174Z,10960
2016-03-30T07:44:35.786Z,9592
2016-03-30T07:45:35.992Z,10264
2016-03-30T07:46:35.838Z,15392
2016-03-30T07:47:43.138Z,12180
2016-03-30T07:48:35.890Z,8624
2016-03-30T07:49:55.190Z,8672
2016-03-30T07:50:36.177Z,12420
2016-03-30T07:52:01.619Z,13324
2016-03-30T07:52:45.494Z,12796
2016-03-30T07:53:45.528Z,8212
2016-03-30T07:54:45.999Z,7264
2016-03-30T07:55:58.315Z,7292
2016-03-30T07:56:45.474Z,6304
2016-03-30T07:58:57.870Z,9032
2016-03-30T07:59:55.107Z,10512
2016-03-30T08:01:07.628Z,10068
2016-03-30T08:01:55.003Z,9480
2016-03-30T08:02:54.912Z,9768
2016-03-30T08:03:54.931Z,10716
2016-03-30T08:04:55.890Z,10652
2016-03-30T08:06:07.786Z,11520
2016-03-30T08:07:07.969Z,11696
2016-03-30T08:08:07.597Z,8656
2016-03-30T08:09:17.686Z,9032
2016-03-30T08:10:14.369Z,10424
2016-03-30T08:11:28.028Z,8888
2016-03-30T08:11:59.840Z,8544
2016-03-30T08:14:15.145Z,12220
2016-03-30T08:15:14.992Z,10832
2016-03-30T08:16:15.525Z,12396
2016-03-30T08:17:16.560Z,10052
2016-03-30T08:18:15.219Z,10636
2016-03-30T08:19:15.081Z,9900
2016-03-30T08:20:27.864Z,9204
2016-03-30T08:21:27.852Z,8940
2016-03-30T08:22:40.839Z,10568
2016-03-30T08:23:27.935Z,10524
2016-03-30T08:24:15.486Z,9672
2016-03-30T08:25:41.097Z,11556
2016-03-30T08:26:16.022Z,11884
2016-03-30T08:27:46.649Z,8064
2016-03-30T08:28:24.886Z,7012
2016-03-30T08:29:25.046Z,9268
2016-03-30T08:30:31.236Z,8372
2016-03-30T08:31:24.989Z,10892
2016-03-30T08:32:37.726Z,12672
2016-03-30T08:33:25.041Z,11116
2016-03-30T08:34:25.091Z,9784
2016-03-30T08:35:25.225Z,8592
2016-03-30T08:36:26.461Z,7712
2016-03-30T08:37:25.120Z,8084
2016-03-30T08:38:44.280Z,8288
2016-03-30T08:39:25.110Z,9136
2016-03-30T08:40:25.347Z,11144
2016-03-30T08:41:25.146Z,11640
2016-03-30T08:42:25.196Z,10516
2016-03-30T08:43:37.933Z,9552
2016-03-30T08:44:25.365Z,9096
2016-03-30T08:45:44.554Z,6456
2016-03-30T08:46:25.276Z,7500
2016-03-30T08:47:26.732Z,6916
2016-03-30T08:48:25.298Z,6764
2016-03-30T08:49:25.300Z,7540
2016-03-30T08:50:25.318Z,7384
2016-03-30T08:51:25.353Z,7908
2016-03-30T08:52:38.106Z,7340
2016-03-30T08:53:26.780Z,6996
2016-03-30T08:54:44.658Z,7556
2016-03-30T08:56:28.523Z,8332
2016-03-30T08:57:28.541Z,8728
2016-03-30T08:58:29.152Z,9564
2016-03-30T08:59:28.609Z,8824
2016-03-30T09:00:29.205Z,8900
2016-03-30T09:01:41.442Z,7016
2016-03-30T09:02:41.366Z,6544
2016-03-30T09:03:28.616Z,6120
2016-03-30T09:04:28.775Z,6852
2016-03-30T09:05:28.778Z,6536
2016-03-30T09:06:28.859Z,7152
2016-03-30T09:07:41.458Z,8212
2016-03-30T09:08:29.052Z,7340
2016-03-30T09:09:28.788Z,7992
2016-03-30T09:10:35.091Z,10216
2016-03-30T09:11:28.810Z,13072
2016-03-30T09:12:41.566Z,12896
2016-03-30T09:13:29.441Z,11668
2016-03-30T09:14:28.850Z,13656
2016-03-30T09:15:28.883Z,12540
2016-03-30T09:16:28.918Z,12756
2016-03-30T09:17:41.657Z,11444
2016-03-30T09:18:35.301Z,10676
2016-03-30T09:20:32.068Z,12076
2016-03-30T09:21:51.340Z,11332
2016-03-30T09:22:32.074Z,11424
2016-03-30T09:24:41.831Z,11540
2016-03-30T09:25:41.725Z,9772
2016-03-30T09:26:54.495Z,8556
2016-03-30T09:27:41.747Z,9148
2016-03-30T09:28:42.014Z,10868
2016-03-30T09:29:42.033Z,11256
2016-03-30T09:30:42.130Z,11148
2016-03-30T09:31:41.867Z,8700
2016-03-30T09:32:48.166Z,8368
2016-03-30T09:33:42.497Z,9516
2016-03-30T09:34:54.656Z,11884
2016-03-30T09:35:41.940Z,13528
2016-03-30T09:37:33.333Z,12188
2016-03-30T09:37:58.680Z,13176
2016-03-30T09:39:42.513Z,15424
2016-03-30T09:40:14.669Z,15584
2016-03-30T09:40:55.141Z,16416
2016-03-30T09:42:52.130Z,16864
2016-03-30T09:43:30.396Z,15936
2016-03-30T09:44:04.758Z,15048
2016-03-30T09:46:20.185Z,11480
2016-03-30T09:47:19.938Z,11164
2016-03-30T09:48:32.832Z,13764
2016-03-30T09:49:19.990Z,15776
2016-03-30T09:50:39.199Z,13892
2016-03-30T09:51:19.871Z,15172
2016-03-30T09:53:17.251Z,9936
2016-03-30T09:53:32.876Z,9632
2016-03-30T09:54:30.113Z,9344
2016-03-30T09:55:36.197Z,10964
2016-03-30T09:56:36.168Z,10816
2016-03-30T09:57:49.124Z,8704
2016-03-30T09:58:29.984Z,8804
2016-03-30T10:00:01.411Z,13508
2016-03-30T10:00:36.241Z,13684
2016-03-30T10:02:32.651Z,14064
2016-03-30T10:03:11.137Z,13108
2016-03-30T10:03:45.281Z,12788
2016-03-30T10:06:04.614Z,12828
2016-03-30T10:06:45.320Z,13556
2016-03-30T10:07:58.042Z,12648
2016-03-30T10:08:51.779Z,13504
2016-03-30T10:10:11.063Z,12524
2016-03-30T10:12:13.536Z,9740
2016-03-30T10:12:47.865Z,9856
2016-03-30T10:13:47.873Z,12508
2016-03-30T10:14:47.881Z,15520
2016-03-30T10:15:47.827Z,14784
2016-03-30T10:17:00.646Z,12488
2016-03-30T10:17:47.938Z,12620
2016-03-30T10:19:39.295Z,16160
2016-03-30T10:19:52.108Z,15084
2016-03-30T10:20:51.918Z,14020
2016-03-30T10:21:58.417Z,15188
2016-03-30T10:22:58.213Z,15936
2016-03-30T10:24:04.700Z,16000
2016-03-30T10:25:04.747Z,14588
2016-03-30T10:27:43.408Z,12660
2016-03-30T10:28:21.783Z,12280
2016-03-30T10:30:49.679Z,12464
2016-03-30T10:32:59.591Z,11020
2016-03-30T10:33:12.247Z,12076
2016-03-30T10:34:43.517Z,14364
2016-03-30T10:35:15.330Z,13772
2016-03-30T10:37:18.539Z,13940
2016-03-30T10:37:56.839Z,13392
2016-03-30T10:38:31.167Z,13124
2016-03-30T10:40:33.813Z,11436
2016-03-30T10:41:12.127Z,11588
2016-03-30T10:41:46.444Z,10880
2016-03-30T10:44:01.964Z,9524
2016-03-30T10:45:02.202Z,10540
2016-03-30T10:47:04.284Z,9944
2016-03-30T10:47:36.346Z,9864
2016-03-30T10:48:36.959Z,12864
2016-03-30T10:49:42.808Z,12144
2016-03-30T10:50:26.730Z,12016
2016-03-30T10:51:26.718Z,11152
2016-03-30T10:52:39.441Z,9184
2016-03-30T10:53:26.770Z,8464
2016-03-30T10:54:39.525Z,10036
2016-03-30T10:55:26.790Z,9424
2016-03-30T10:56:52.748Z,11620
2016-03-30T10:57:26.826Z,12612
2016-03-30T10:58:27.095Z,12048
2016-03-30T10:59:27.504Z,10116
2016-03-30T11:01:29.525Z,10376
2016-03-30T11:01:42.122Z,10728
2016-03-30T11:02:42.218Z,13884
2016-03-30T11:03:48.517Z,16032
2016-03-30T11:04:48.474Z,14324
2016-03-30T11:05:54.898Z,14032
2016-03-30T11:07:01.417Z,14800
2016-03-30T11:07:42.231Z,14592
2016-03-30T11:08:42.297Z,13472
2016-03-30T11:09:42.299Z,12776
2016-03-30T11:10:48.568Z,13032
2016-03-30T11:11:42.336Z,12528
2016-03-30T11:13:01.542Z,9756
2016-03-30T11:13:55.201Z,8524
2016-03-30T11:15:08.079Z,9260
2016-03-30T11:17:16.913Z,6068
2016-03-30T11:17:45.633Z,5988
2016-03-30T11:18:45.777Z,5696
2016-03-30T11:21:01.563Z,6600
2016-03-30T11:22:14.394Z,7492
2016-03-30T11:23:01.679Z,7156
2016-03-30T11:25:04.731Z,7196
2016-03-30T11:26:04.765Z,6436
2016-03-30T11:27:36.220Z,7928
2016-03-30T11:28:17.551Z,9544
2016-03-30T11:29:30.601Z,11940
2016-03-30T11:30:24.134Z,14796
2016-03-30T11:31:05.043Z,14208
2016-03-30T11:32:30.609Z,16160
2016-03-30T11:33:11.471Z,16704
2016-03-30T11:34:05.020Z,15120
2016-03-30T11:35:05.179Z,11772
2016-03-30T11:36:05.635Z,10184
2016-03-30T11:37:05.138Z,10532
2016-03-30T11:38:11.484Z,14972
2016-03-30T11:39:05.112Z,14236
2016-03-30T11:40:11.537Z,13896
2016-03-30T11:41:05.102Z,13952
2016-03-30T11:42:05.214Z,12628
2016-03-30T11:43:05.185Z,11012
2016-03-30T11:44:05.219Z,11580
2016-03-30T11:45:17.956Z,10616
2016-03-30T11:46:11.522Z,10136
2016-03-30T11:47:24.415Z,9552
2016-03-30T11:48:05.292Z,9080
2016-03-30T11:49:36.795Z,8916
2016-03-30T11:50:15.126Z,7284
2016-03-30T11:51:46.365Z,7180
2016-03-30T11:52:18.146Z,7004
2016-03-30T11:54:20.793Z,7772
2016-03-30T11:54:33.449Z,8176
2016-03-30T11:55:33.452Z,9952
2016-03-30T11:56:58.442Z,11612
2016-03-30T11:57:33.707Z,13684
2016-03-30T11:58:33.709Z,13336
2016-03-30T11:59:39.996Z,15280
2016-03-30T12:00:33.528Z,15840
2016-03-30T12:01:33.578Z,15324
2016-03-30T12:02:35.595Z,14472
2016-03-30T12:03:35.036Z,15712
2016-03-30T12:04:46.370Z,15872
2016-03-30T12:05:52.856Z,14584
2016-03-30T12:06:33.653Z,13684
2016-03-30T12:07:33.936Z,13024
2016-03-30T12:08:46.287Z,12916
2016-03-30T12:09:33.744Z,13840
2016-03-30T12:10:33.762Z,14100
2016-03-30T12:11:34.874Z,13364
2016-03-30T12:12:53.004Z,14164
2016-03-30T12:13:46.553Z,14288
2016-03-30T12:14:33.944Z,13728
2016-03-30T12:15:53.387Z,12056
2016-03-30T12:16:33.950Z,11612
2016-03-30T12:18:05.376Z,9580
2016-03-30T12:18:46.709Z,8624
2016-03-30T12:19:33.974Z,8640
2016-03-30T12:20:59.667Z,9912
2016-03-30T12:21:46.747Z,10624
2016-03-30T12:23:05.390Z,12244
2016-03-30T12:23:34.140Z,12356
2016-03-30T12:24:34.097Z,12620
2016-03-30T12:25:34.740Z,13028
2016-03-30T12:26:34.836Z,13212
2016-03-30T12:27:46.888Z,13308
2016-03-30T12:28:34.669Z,13180
2016-03-30T12:29:53.394Z,10712
2016-03-30T12:30:46.975Z,9288
2016-03-30T12:31:59.946Z,7732
2016-03-30T12:32:34.289Z,6116
2016-03-30T12:34:06.233Z,5096
2016-03-30T12:34:34.295Z,4928
2016-03-30T12:35:34.360Z,6964
2016-03-30T12:36:34.347Z,8580
2016-03-30T12:37:34.552Z,7864
2016-03-30T12:38:34.494Z,8252
2016-03-30T12:39:40.702Z,7852
2016-03-30T12:40:34.702Z,8544
2016-03-30T12:41:40.723Z,10052
2016-03-30T12:42:40.991Z,9880
2016-03-30T12:43:34.507Z,9756
2016-03-30T12:44:54.059Z,7324
2016-03-30T12:45:40.998Z,6096
2016-03-30T12:47:46.832Z,5180
2016-03-30T12:48:12.129Z,4984
2016-03-30T12:48:59.460Z,4860
2016-03-30T12:49:59.698Z,4824
2016-03-30T12:51:05.715Z,4220
2016-03-30T12:51:59.703Z,4144
2016-03-30T12:53:18.690Z,4508
2016-03-30T12:54:05.786Z,6436
2016-03-30T12:54:59.601Z,12344
2016-03-30T12:55:59.542Z,16384
2016-03-30T12:57:05.841Z,16416
2016-03-30T12:57:59.594Z,14700
2016-03-30T12:59:18.847Z,13368
2016-03-30T12:59:59.646Z,13928
2016-03-30T13:01:25.508Z,13428
2016-03-30T13:02:07.402Z,14000
2016-03-30T13:03:31.014Z,12764
2016-03-30T13:04:09.266Z,12084
2016-03-30T13:06:18.881Z,12216
2016-03-30T13:08:22.386Z,13320
2016-03-30T13:09:47.751Z,12892
2016-03-30T13:10:22.735Z,12364
2016-03-30T13:12:37.522Z,4028
2016-03-30T13:13:37.353Z,3848
2016-03-30T13:14:37.216Z,6140
2016-03-30T13:15:38.015Z,7460
2016-03-30T13:16:50.348Z,8920
2016-03-30T13:17:37.614Z,10576
2016-03-30T13:18:56.666Z,11852
2016-03-30T13:19:37.495Z,11752
2016-03-30T13:20:56.703Z,10168
2016-03-30T13:21:37.531Z,8688
2016-03-30T13:23:08.849Z,7688
2016-03-30T13:23:50.304Z,8420
2016-03-30T13:25:56.591Z,9332
2016-03-30T13:26:37.653Z,9500
2016-03-30T13:27:37.641Z,9508
2016-03-30T13:28:37.675Z,9160
2016-03-30T13:29:37.724Z,8808
2016-03-30T13:30:37.728Z,8520
2016-03-30T13:31:43.980Z,7600
2016-03-30T13:32:37.747Z,6976
2016-03-30T13:33:56.989Z,6780
2016-03-30T13:34:37.786Z,6932
2016-03-30T13:35:37.928Z,7672
2016-03-30T13:36:50.605Z,9372
2016-03-30T13:37:44.121Z,10292
2016-03-30T13:38:57.063Z,10464
2016-03-30T13:39:37.876Z,10128
2016-03-30T13:41:40.538Z,11676
2016-03-30T13:42:18.821Z,12340
2016-03-30T13:42:53.138Z,12808
2016-03-30T13:44:55.783Z,12728
2016-03-30T13:45:34.018Z,12536
2016-03-30T13:46:08.395Z,12580
2016-03-30T13:48:10.993Z,9896
2016-03-30T13:48:23.587Z,9608
2016-03-30T13:49:23.576Z,7896
2016-03-30T13:50:29.890Z,6732
2016-03-30T13:51:30.096Z,6016
2016-03-30T13:52:36.395Z,5948
2016-03-30T13:53:42.868Z,5856
2016-03-30T13:54:42.885Z,5644
2016-03-30T13:55:42.951Z,5424
2016-03-30T13:56:49.393Z,5212
2016-03-30T13:57:46.893Z,5256
2016-03-30T13:59:24.728Z,5324
2016-03-30T14:00:02.980Z,5324
2016-03-30T14:01:28.701Z,5268
2016-03-30T14:02:12.610Z,5484
2016-03-30T14:03:21.988Z,5716
2016-03-30T14:03:56.537Z,6048
2016-03-30T14:04:56.556Z,6624
2016-03-30T14:06:09.386Z,5848
2016-03-30T14:07:09.311Z,6480
2016-03-30T14:09:25.254Z,7656
2016-03-30T14:09:59.772Z,7216
2016-03-30T14:11:31.135Z,9748
2016-03-30T14:12:06.152Z,10608
2016-03-30T14:13:31.219Z,10004
2016-03-30T14:13:59.877Z,10112
2016-03-30T14:14:59.974Z,10496
2016-03-30T14:15:59.930Z,10852
2016-03-30T14:17:06.182Z,10760
2016-03-30T14:17:59.935Z,10844
2016-03-30T14:18:59.969Z,11280
2016-03-30T14:20:00.018Z,11608
2016-03-30T14:21:00.021Z,11080
2016-03-30T14:22:00.055Z,9532
2016-03-30T14:23:00.042Z,7828
2016-03-30T14:24:00.076Z,6656
2016-03-30T14:25:00.094Z,5916
2016-03-30T14:26:00.722Z,5804
2016-03-30T14:27:00.115Z,6536
2016-03-30T14:28:00.134Z,7244
2016-03-30T14:29:00.199Z,7156
2016-03-30T14:30:12.967Z,6808
2016-03-30T14:31:06.485Z,6296
2016-03-30T14:32:12.973Z,5896
2016-03-30T14:33:13.600Z,5708
2016-03-30T14:34:00.290Z,5812
2016-03-30T14:35:26.012Z,6620
2016-03-30T14:36:13.061Z,7304
2016-03-30T14:37:31.642Z,7820
2016-03-30T14:38:13.098Z,8704
2016-03-30T14:40:01.009Z,6376
2016-03-30T14:41:13.200Z,6180
2016-03-30T14:42:02.000Z,6184
2016-03-30T14:43:26.127Z,6428
2016-03-30T14:44:13.224Z,6560
2016-03-30T14:46:28.619Z,7964
2016-03-30T14:47:28.638Z,8168
2016-03-30T14:48:28.547Z,8304
2016-03-30T14:49:34.955Z,9484
2016-03-30T14:50:28.708Z,9264
2016-03-30T14:51:28.711Z,8312
2016-03-30T14:52:28.745Z,7004
2016-03-30T14:53:28.763Z,6744
2016-03-30T14:54:28.797Z,6700
2016-03-30T14:55:35.081Z,5748
2016-03-30T14:56:29.177Z,4956
2016-03-30T14:57:48.071Z,4648
2016-03-30T14:58:30.277Z,4880
2016-03-30T15:00:38.454Z,5192
2016-03-30T15:01:57.662Z,5340
2016-03-30T15:02:38.584Z,5344
2016-03-30T15:04:30.449Z,4968
2016-03-30T15:04:43.028Z,4824
2016-03-30T15:05:43.045Z,4868
2016-03-30T15:06:49.345Z,4964
2016-03-30T15:07:44.519Z,4932